sensor_id;sensor_type;location;lat;lon;timestamp;P1;durP1;ratioP1;P2;durP2;ratioP2
14789;SDS011;7486;51.010;10.366;2023-07-31T00:00:09;3.05;;;1.60;;
14789;SDS011;7486;51.010;10.366;2023-07-31T00:02:55;3.30;;;1.60;;
14789;SDS011;7486;51.010;10.366;2023-07-31T00:05:43;4.60;;;1.50;;
14789;SDS011;7486;51.010;10.366;2023-07-31T00:08:28;2.72;;;1.30;;
14789;SDS011;7486;51.010;10.366;2023-07-31T00:11:14;2.72;;;1.40;;
14789;SDS011;7486;51.010;10.366;2023-07-31T00:13:59;2.50;;;1.40;;
14789;SDS011;7486;51.010;10.366;2023-07-31T00:16:45;2.25;;;1.40;;
14789;SDS011;7486;51.010;10.366;2023-07-31T00:19:30;3.28;;;1.65;;
14789;SDS011;7486;51.010;10.366;2023-07-31T00:22:15;1.65;;;1.40;;
14789;SDS011;7486;51.010;10.366;2023-07-31T00:25:01;5.03;;;1.48;;
14789;SDS011;7486;51.010;10.366;2023-07-31T00:27:47;3.75;;;1.70;;
14789;SDS011;7486;51.010;10.366;2023-07-31T00:30:32;3.63;;;1.40;;
14789;SDS011;7486;51.010;10.366;2023-07-31T00:33:18;2.38;;;1.50;;
14789;SDS011;7486;51.010;10.366;2023-07-31T00:36:03;3.70;;;1.55;;
14789;SDS011;7486;51.010;10.366;2023-07-31T00:38:49;3.38;;;1.73;;
14789;SDS011;7486;51.010;10.366;2023-07-31T00:41:34;1.80;;;1.40;;
14789;SDS011;7486;51.010;10.366;2023-07-31T00:44:20;4.15;;;1.58;;
14789;SDS011;7486;51.010;10.366;2023-07-31T00:47:05;2.40;;;1.40;;
14789;SDS011;7486;51.010;10.366;2023-07-31T00:49:51;2.47;;;1.52;;
14789;SDS011;7486;51.010;10.366;2023-07-31T00:52:37;3.90;;;1.52;;
14789;SDS011;7486;51.010;10.366;2023-07-31T00:55:22;3.83;;;1.60;;
14789;SDS011;7486;51.010;10.366;2023-07-31T00:58:08;4.45;;;1.88;;
14789;SDS011;7486;51.010;10.366;2023-07-31T01:00:56;4.38;;;1.80;;
14789;SDS011;7486;51.010;10.366;2023-07-31T01:03:42;3.50;;;1.60;;
14789;SDS011;7486;51.010;10.366;2023-07-31T01:12:16;3.92;;;1.58;;
14789;SDS011;7486;51.010;10.366;2023-07-31T01:15:06;3.22;;;1.60;;
14789;SDS011;7486;51.010;10.366;2023-07-31T01:17:53;4.07;;;1.83;;
14789;SDS011;7486;51.010;10.366;2023-07-31T01:20:39;2.90;;;1.65;;
14789;SDS011;7486;51.010;10.366;2023-07-31T01:23:49;3.00;;;1.73;;
14789;SDS011;7486;51.010;10.366;2023-07-31T01:26:46;4.93;;;1.90;;
14789;SDS011;7486;51.010;10.366;2023-07-31T01:29:39;3.67;;;1.90;;
14789;SDS011;7486;51.010;10.366;2023-07-31T01:32:45;3.10;;;1.60;;
14789;SDS011;7486;51.010;10.366;2023-07-31T01:35:34;4.72;;;2.05;;
14789;SDS011;7486;51.010;10.366;2023-07-31T01:38:20;2.80;;;1.65;;
14789;SDS011;7486;51.010;10.366;2023-07-31T01:41:06;5.10;;;1.88;;
14789;SDS011;7486;51.010;10.366;2023-07-31T01:43:52;2.60;;;1.70;;
14789;SDS011;7486;51.010;10.366;2023-07-31T01:46:37;5.03;;;1.90;;
14789;SDS011;7486;51.010;10.366;2023-07-31T01:49:23;4.72;;;1.90;;
14789;SDS011;7486;51.010;10.366;2023-07-31T01:52:09;2.53;;;1.58;;
14789;SDS011;7486;51.010;10.366;2023-07-31T01:54:55;3.72;;;1.98;;
14789;SDS011;7486;51.010;10.366;2023-07-31T01:57:40;3.28;;;1.70;;
14789;SDS011;7486;51.010;10.366;2023-07-31T02:00:26;3.40;;;1.58;;
14789;SDS011;7486;51.010;10.366;2023-07-31T02:03:11;4.70;;;1.90;;
14789;SDS011;7486;51.010;10.366;2023-07-31T02:05:57;3.63;;;1.80;;
14789;SDS011;7486;51.010;10.366;2023-07-31T02:08:43;2.30;;;1.60;;
14789;SDS011;7486;51.010;10.366;2023-07-31T02:11:30;4.32;;;1.83;;
14789;SDS011;7486;51.010;10.366;2023-07-31T02:14:15;4.38;;;1.67;;
14789;SDS011;7486;51.010;10.366;2023-07-31T02:17:01;3.13;;;1.95;;
14789;SDS011;7486;51.010;10.366;2023-07-31T02:19:47;3.45;;;1.75;;
14789;SDS011;7486;51.010;10.366;2023-07-31T02:22:33;4.05;;;1.70;;
14789;SDS011;7486;51.010;10.366;2023-07-31T02:25:20;5.55;;;1.83;;
14789;SDS011;7486;51.010;10.366;2023-07-31T02:28:05;4.10;;;1.70;;
14789;SDS011;7486;51.010;10.366;2023-07-31T02:30:51;2.63;;;1.80;;
14789;SDS011;7486;51.010;10.366;2023-07-31T02:33:36;2.95;;;1.90;;
14789;SDS011;7486;51.010;10.366;2023-07-31T02:36:21;3.63;;;1.75;;
14789;SDS011;7486;51.010;10.366;2023-07-31T02:39:07;5.35;;;1.92;;
14789;SDS011;7486;51.010;10.366;2023-07-31T02:41:52;3.75;;;2.05;;
14789;SDS011;7486;51.010;10.366;2023-07-31T02:44:38;2.90;;;1.95;;
14789;SDS011;7486;51.010;10.366;2023-07-31T02:47:23;4.15;;;1.90;;
14789;SDS011;7486;51.010;10.366;2023-07-31T02:50:09;5.85;;;2.15;;
14789;SDS011;7486;51.010;10.366;2023-07-31T02:52:55;4.25;;;2.22;;
14789;SDS011;7486;51.010;10.366;2023-07-31T02:55:40;2.85;;;1.90;;
14789;SDS011;7486;51.010;10.366;2023-07-31T02:58:26;5.40;;;2.33;;
14789;SDS011;7486;51.010;10.366;2023-07-31T03:01:11;3.75;;;2.10;;
14789;SDS011;7486;51.010;10.366;2023-07-31T03:03:57;5.22;;;2.22;;
14789;SDS011;7486;51.010;10.366;2023-07-31T03:06:43;4.65;;;2.00;;
14789;SDS011;7486;51.010;10.366;2023-07-31T03:09:28;4.53;;;2.00;;
14789;SDS011;7486;51.010;10.366;2023-07-31T03:12:14;4.40;;;2.13;;
14789;SDS011;7486;51.010;10.366;2023-07-31T03:14:59;4.78;;;2.15;;
14789;SDS011;7486;51.010;10.366;2023-07-31T03:17:45;5.95;;;2.10;;
14789;SDS011;7486;51.010;10.366;2023-07-31T03:20:30;4.55;;;2.08;;
14789;SDS011;7486;51.010;10.366;2023-07-31T03:23:16;4.53;;;2.20;;
14789;SDS011;7486;51.010;10.366;2023-07-31T03:26:02;3.15;;;2.30;;
14789;SDS011;7486;51.010;10.366;2023-07-31T03:28:51;3.65;;;2.40;;
14789;SDS011;7486;51.010;10.366;2023-07-31T03:31:38;3.83;;;2.10;;
14789;SDS011;7486;51.010;10.366;2023-07-31T03:34:23;3.97;;;2.33;;
14789;SDS011;7486;51.010;10.366;2023-07-31T03:37:09;4.28;;;2.35;;
14789;SDS011;7486;51.010;10.366;2023-07-31T03:39:54;6.03;;;2.30;;
14789;SDS011;7486;51.010;10.366;2023-07-31T03:42:40;4.63;;;2.15;;
14789;SDS011;7486;51.010;10.366;2023-07-31T03:45:25;3.72;;;2.10;;
14789;SDS011;7486;51.010;10.366;2023-07-31T03:48:13;3.67;;;2.28;;
14789;SDS011;7486;51.010;10.366;2023-07-31T03:50:59;3.55;;;2.28;;
14789;SDS011;7486;51.010;10.366;2023-07-31T03:53:45;4.78;;;2.10;;
14789;SDS011;7486;51.010;10.366;2023-07-31T03:56:30;3.05;;;2.20;;
14789;SDS011;7486;51.010;10.366;2023-07-31T03:59:20;3.35;;;2.00;;
14789;SDS011;7486;51.010;10.366;2023-07-31T04:02:06;3.90;;;2.20;;
14789;SDS011;7486;51.010;10.366;2023-07-31T04:04:51;5.55;;;2.30;;
14789;SDS011;7486;51.010;10.366;2023-07-31T04:07:37;2.83;;;1.83;;
14789;SDS011;7486;51.010;10.366;2023-07-31T04:10:23;3.88;;;2.40;;
14789;SDS011;7486;51.010;10.366;2023-07-31T04:13:08;4.32;;;1.90;;
14789;SDS011;7486;51.010;10.366;2023-07-31T04:15:54;5.65;;;2.50;;
14789;SDS011;7486;51.010;10.366;2023-07-31T04:18:39;5.18;;;2.10;;
14789;SDS011;7486;51.010;10.366;2023-07-31T04:21:25;4.43;;;2.08;;
14789;SDS011;7486;51.010;10.366;2023-07-31T04:24:10;3.78;;;2.08;;
14789;SDS011;7486;51.010;10.366;2023-07-31T04:26:55;3.78;;;2.30;;
14789;SDS011;7486;51.010;10.366;2023-07-31T04:29:41;4.13;;;1.77;;
14789;SDS011;7486;51.010;10.366;2023-07-31T04:32:26;3.80;;;2.05;;
14789;SDS011;7486;51.010;10.366;2023-07-31T04:35:12;4.28;;;2.28;;
14789;SDS011;7486;51.010;10.366;2023-07-31T04:37:58;2.67;;;1.80;;
14789;SDS011;7486;51.010;10.366;2023-07-31T04:40:43;3.05;;;1.92;;
14789;SDS011;7486;51.010;10.366;2023-07-31T04:43:29;3.60;;;2.08;;
14789;SDS011;7486;51.010;10.366;2023-07-31T04:46:15;5.60;;;2.03;;
14789;SDS011;7486;51.010;10.366;2023-07-31T04:49:00;2.33;;;2.00;;
14789;SDS011;7486;51.010;10.366;2023-07-31T04:51:45;4.40;;;2.20;;
14789;SDS011;7486;51.010;10.366;2023-07-31T04:54:31;2.83;;;2.20;;
14789;SDS011;7486;51.010;10.366;2023-07-31T04:57:16;2.92;;;2.03;;
14789;SDS011;7486;51.010;10.366;2023-07-31T05:00:02;3.83;;;2.17;;
14789;SDS011;7486;51.010;10.366;2023-07-31T05:02:48;3.55;;;2.15;;
14789;SDS011;7486;51.010;10.366;2023-07-31T05:05:33;4.30;;;2.20;;
14789;SDS011;7486;51.010;10.366;2023-07-31T05:08:19;3.08;;;1.98;;
14789;SDS011;7486;51.010;10.366;2023-07-31T05:11:04;3.90;;;2.03;;
14789;SDS011;7486;51.010;10.366;2023-07-31T05:13:50;5.00;;;2.40;;
14789;SDS011;7486;51.010;10.366;2023-07-31T05:16:35;4.25;;;2.30;;
14789;SDS011;7486;51.010;10.366;2023-07-31T05:19:21;4.13;;;2.20;;
14789;SDS011;7486;51.010;10.366;2023-07-31T05:22:07;3.85;;;2.00;;
14789;SDS011;7486;51.010;10.366;2023-07-31T05:24:52;5.85;;;2.28;;
14789;SDS011;7486;51.010;10.366;2023-07-31T05:27:38;2.47;;;1.85;;
14789;SDS011;7486;51.010;10.366;2023-07-31T05:30:23;4.65;;;2.42;;
14789;SDS011;7486;51.010;10.366;2023-07-31T05:33:09;4.20;;;2.47;;
14789;SDS011;7486;51.010;10.366;2023-07-31T05:35:58;4.68;;;2.22;;
14789;SDS011;7486;51.010;10.366;2023-07-31T05:38:44;3.70;;;1.98;;
14789;SDS011;7486;51.010;10.366;2023-07-31T05:41:29;5.47;;;2.42;;
14789;SDS011;7486;51.010;10.366;2023-07-31T05:44:15;3.58;;;2.20;;
14789;SDS011;7486;51.010;10.366;2023-07-31T05:47:00;5.90;;;2.40;;
14789;SDS011;7486;51.010;10.366;2023-07-31T05:49:46;3.95;;;2.42;;
14789;SDS011;7486;51.010;10.366;2023-07-31T05:52:31;3.58;;;2.20;;
14789;SDS011;7486;51.010;10.366;2023-07-31T05:55:17;2.65;;;2.10;;
14789;SDS011;7486;51.010;10.366;2023-07-31T05:58:03;4.75;;;2.17;;
14789;SDS011;7486;51.010;10.366;2023-07-31T06:00:48;4.13;;;2.20;;
14789;SDS011;7486;51.010;10.366;2023-07-31T06:03:33;3.45;;;2.50;;
14789;SDS011;7486;51.010;10.366;2023-07-31T06:06:19;4.22;;;2.47;;
14789;SDS011;7486;51.010;10.366;2023-07-31T06:09:04;3.45;;;2.47;;
14789;SDS011;7486;51.010;10.366;2023-07-31T06:11:50;4.15;;;2.20;;
14789;SDS011;7486;51.010;10.366;2023-07-31T06:14:35;4.38;;;2.30;;
14789;SDS011;7486;51.010;10.366;2023-07-31T06:17:20;3.35;;;2.25;;
14789;SDS011;7486;51.010;10.366;2023-07-31T06:20:06;3.20;;;2.20;;
14789;SDS011;7486;51.010;10.366;2023-07-31T06:22:52;4.85;;;2.72;;
14789;SDS011;7486;51.010;10.366;2023-07-31T06:25:38;3.55;;;2.30;;
14789;SDS011;7486;51.010;10.366;2023-07-31T06:28:30;6.10;;;2.10;;
14789;SDS011;7486;51.010;10.366;2023-07-31T06:31:16;3.17;;;2.22;;
14789;SDS011;7486;51.010;10.366;2023-07-31T06:34:02;3.42;;;2.13;;
14789;SDS011;7486;51.010;10.366;2023-07-31T06:36:47;4.75;;;2.30;;
14789;SDS011;7486;51.010;10.366;2023-07-31T06:39:33;4.53;;;2.00;;
14789;SDS011;7486;51.010;10.366;2023-07-31T06:42:19;4.20;;;2.42;;
14789;SDS011;7486;51.010;10.366;2023-07-31T06:45:04;5.43;;;2.72;;
14789;SDS011;7486;51.010;10.366;2023-07-31T06:47:50;3.22;;;2.15;;
14789;SDS011;7486;51.010;10.366;2023-07-31T06:50:36;3.67;;;2.20;;
14789;SDS011;7486;51.010;10.366;2023-07-31T06:53:21;4.57;;;2.40;;
14789;SDS011;7486;51.010;10.366;2023-07-31T06:56:07;4.28;;;2.30;;
14789;SDS011;7486;51.010;10.366;2023-07-31T06:58:53;4.55;;;2.50;;
14789;SDS011;7486;51.010;10.366;2023-07-31T07:01:38;4.05;;;2.30;;
14789;SDS011;7486;51.010;10.366;2023-07-31T07:04:24;3.75;;;2.55;;
14789;SDS011;7486;51.010;10.366;2023-07-31T07:07:09;3.25;;;2.53;;
14789;SDS011;7486;51.010;10.366;2023-07-31T07:09:55;4.28;;;2.25;;
14789;SDS011;7486;51.010;10.366;2023-07-31T07:12:40;4.38;;;2.40;;
14789;SDS011;7486;51.010;10.366;2023-07-31T07:15:26;3.55;;;1.90;;
14789;SDS011;7486;51.010;10.366;2023-07-31T07:18:11;3.13;;;2.38;;
14789;SDS011;7486;51.010;10.366;2023-07-31T07:20:57;4.55;;;2.10;;
14789;SDS011;7486;51.010;10.366;2023-07-31T07:23:43;3.28;;;2.00;;
14789;SDS011;7486;51.010;10.366;2023-07-31T07:26:28;3.63;;;2.63;;
14789;SDS011;7486;51.010;10.366;2023-07-31T07:29:13;4.72;;;2.28;;
14789;SDS011;7486;51.010;10.366;2023-07-31T07:31:59;2.83;;;2.00;;
14789;SDS011;7486;51.010;10.366;2023-07-31T07:34:45;4.85;;;2.40;;
14789;SDS011;7486;51.010;10.366;2023-07-31T07:37:30;5.30;;;2.10;;
14789;SDS011;7486;51.010;10.366;2023-07-31T07:40:18;4.97;;;2.40;;
14789;SDS011;7486;51.010;10.366;2023-07-31T07:43:04;3.28;;;1.95;;
14789;SDS011;7486;51.010;10.366;2023-07-31T07:45:49;4.53;;;2.42;;
14789;SDS011;7486;51.010;10.366;2023-07-31T07:48:35;2.63;;;2.03;;
14789;SDS011;7486;51.010;10.366;2023-07-31T07:51:21;5.18;;;2.40;;
14789;SDS011;7486;51.010;10.366;2023-07-31T07:54:06;3.10;;;2.10;;
14789;SDS011;7486;51.010;10.366;2023-07-31T07:56:52;5.60;;;2.10;;
14789;SDS011;7486;51.010;10.366;2023-07-31T07:59:37;4.22;;;2.38;;
14789;SDS011;7486;51.010;10.366;2023-07-31T08:02:23;6.57;;;2.63;;
14789;SDS011;7486;51.010;10.366;2023-07-31T08:05:08;5.00;;;2.15;;
14789;SDS011;7486;51.010;10.366;2023-07-31T08:07:53;4.55;;;2.63;;
14789;SDS011;7486;51.010;10.366;2023-07-31T08:10:39;6.05;;;2.70;;
14789;SDS011;7486;51.010;10.366;2023-07-31T08:13:24;5.55;;;2.40;;
14789;SDS011;7486;51.010;10.366;2023-07-31T08:16:09;3.33;;;2.40;;
14789;SDS011;7486;51.010;10.366;2023-07-31T08:18:55;5.60;;;2.65;;
14789;SDS011;7486;51.010;10.366;2023-07-31T08:21:40;3.78;;;2.25;;
14789;SDS011;7486;51.010;10.366;2023-07-31T08:24:26;3.30;;;2.25;;
14789;SDS011;7486;51.010;10.366;2023-07-31T08:27:12;5.07;;;2.47;;
14789;SDS011;7486;51.010;10.366;2023-07-31T08:29:57;4.15;;;2.25;;
14789;SDS011;7486;51.010;10.366;2023-07-31T08:33:06;3.85;;;2.08;;
14789;SDS011;7486;51.010;10.366;2023-07-31T08:36:40;4.05;;;2.30;;
14789;SDS011;7486;51.010;10.366;2023-07-31T08:39:50;6.57;;;2.95;;
14789;SDS011;7486;51.010;10.366;2023-07-31T08:42:48;4.65;;;2.50;;
14789;SDS011;7486;51.010;10.366;2023-07-31T08:45:35;3.55;;;2.38;;
14789;SDS011;7486;51.010;10.366;2023-07-31T08:48:21;5.03;;;2.50;;
14789;SDS011;7486;51.010;10.366;2023-07-31T08:51:08;4.38;;;2.50;;
14789;SDS011;7486;51.010;10.366;2023-07-31T08:53:53;4.88;;;2.20;;
14789;SDS011;7486;51.010;10.366;2023-07-31T08:56:39;5.30;;;2.55;;
14789;SDS011;7486;51.010;10.366;2023-07-31T08:59:27;5.25;;;2.55;;
14789;SDS011;7486;51.010;10.366;2023-07-31T09:02:16;4.63;;;2.42;;
14789;SDS011;7486;51.010;10.366;2023-07-31T09:05:05;4.10;;;2.42;;
14789;SDS011;7486;51.010;10.366;2023-07-31T09:08:06;3.78;;;2.30;;
14789;SDS011;7486;51.010;10.366;2023-07-31T09:10:58;4.85;;;2.10;;
14789;SDS011;7486;51.010;10.366;2023-07-31T09:13:45;5.18;;;2.40;;
14789;SDS011;7486;51.010;10.366;2023-07-31T09:16:31;4.57;;;2.53;;
14789;SDS011;7486;51.010;10.366;2023-07-31T09:19:24;4.40;;;2.53;;
14789;SDS011;7486;51.010;10.366;2023-07-31T09:22:14;4.25;;;2.50;;
14789;SDS011;7486;51.010;10.366;2023-07-31T09:25:07;4.32;;;2.38;;
14789;SDS011;7486;51.010;10.366;2023-07-31T09:28:09;4.32;;;2.22;;
14789;SDS011;7486;51.010;10.366;2023-07-31T09:30:55;4.22;;;2.40;;
14789;SDS011;7486;51.010;10.366;2023-07-31T09:33:53;6.70;;;2.60;;
14789;SDS011;7486;51.010;10.366;2023-07-31T09:36:52;3.67;;;2.53;;
14789;SDS011;7486;51.010;10.366;2023-07-31T09:39:45;5.03;;;2.60;;
14789;SDS011;7486;51.010;10.366;2023-07-31T09:42:31;5.03;;;2.40;;
14789;SDS011;7486;51.010;10.366;2023-07-31T09:45:19;5.20;;;2.33;;
14789;SDS011;7486;51.010;10.366;2023-07-31T09:48:13;4.25;;;2.60;;
14789;SDS011;7486;51.010;10.366;2023-07-31T09:51:04;4.05;;;2.60;;
14789;SDS011;7486;51.010;10.366;2023-07-31T09:53:50;4.47;;;2.70;;
14789;SDS011;7486;51.010;10.366;2023-07-31T09:56:36;3.55;;;2.50;;
14789;SDS011;7486;51.010;10.366;2023-07-31T09:59:26;4.43;;;2.80;;
14789;SDS011;7486;51.010;10.366;2023-07-31T10:02:14;5.50;;;2.40;;
14789;SDS011;7486;51.010;10.366;2023-07-31T10:05:06;3.47;;;2.33;;
14789;SDS011;7486;51.010;10.366;2023-07-31T10:07:55;6.65;;;2.95;;
14789;SDS011;7486;51.010;10.366;2023-07-31T10:10:42;4.22;;;2.50;;
14789;SDS011;7486;51.010;10.366;2023-07-31T10:13:28;3.45;;;2.58;;
14789;SDS011;7486;51.010;10.366;2023-07-31T10:16:15;4.65;;;2.50;;
14789;SDS011;7486;51.010;10.366;2023-07-31T10:19:02;4.22;;;2.72;;
14789;SDS011;7486;51.010;10.366;2023-07-31T10:21:48;2.97;;;2.40;;
14789;SDS011;7486;51.010;10.366;2023-07-31T10:24:33;4.22;;;2.65;;
14789;SDS011;7486;51.010;10.366;2023-07-31T10:27:22;6.13;;;2.60;;
14789;SDS011;7486;51.010;10.366;2023-07-31T10:30:08;5.20;;;2.90;;
14789;SDS011;7486;51.010;10.366;2023-07-31T10:32:57;5.03;;;2.65;;
14789;SDS011;7486;51.010;10.366;2023-07-31T10:35:43;5.05;;;2.60;;
14789;SDS011;7486;51.010;10.366;2023-07-31T10:38:29;4.28;;;3.03;;
14789;SDS011;7486;51.010;10.366;2023-07-31T10:41:14;4.10;;;2.78;;
14789;SDS011;7486;51.010;10.366;2023-07-31T10:44:00;4.32;;;2.80;;
14789;SDS011;7486;51.010;10.366;2023-07-31T10:46:46;4.30;;;2.70;;
14789;SDS011;7486;51.010;10.366;2023-07-31T10:49:32;4.80;;;2.85;;
14789;SDS011;7486;51.010;10.366;2023-07-31T10:52:21;6.15;;;2.90;;
14789;SDS011;7486;51.010;10.366;2023-07-31T10:58:10;8.50;;;3.22;;
14789;SDS011;7486;51.010;10.366;2023-07-31T11:00:57;3.88;;;2.50;;
14789;SDS011;7486;51.010;10.366;2023-07-31T11:03:48;4.57;;;2.65;;
14789;SDS011;7486;51.010;10.366;2023-07-31T11:06:35;3.22;;;2.60;;
14789;SDS011;7486;51.010;10.366;2023-07-31T11:09:22;4.13;;;2.65;;
14789;SDS011;7486;51.010;10.366;2023-07-31T11:12:08;4.68;;;2.80;;
14789;SDS011;7486;51.010;10.366;2023-07-31T11:14:54;3.45;;;2.75;;
14789;SDS011;7486;51.010;10.366;2023-07-31T11:17:42;4.10;;;2.60;;
14789;SDS011;7486;51.010;10.366;2023-07-31T11:20:29;5.78;;;3.05;;
14789;SDS011;7486;51.010;10.366;2023-07-31T11:23:16;5.13;;;2.75;;
14789;SDS011;7486;51.010;10.366;2023-07-31T11:26:04;4.13;;;3.08;;
14789;SDS011;7486;51.010;10.366;2023-07-31T11:28:51;4.25;;;2.58;;
14789;SDS011;7486;51.010;10.366;2023-07-31T11:31:41;5.30;;;2.70;;
14789;SDS011;7486;51.010;10.366;2023-07-31T11:34:28;5.45;;;2.70;;
14789;SDS011;7486;51.010;10.366;2023-07-31T11:37:13;3.63;;;2.80;;
14789;SDS011;7486;51.010;10.366;2023-07-31T11:40:00;3.58;;;2.63;;
14789;SDS011;7486;51.010;10.366;2023-07-31T11:42:45;4.95;;;2.50;;
14789;SDS011;7486;51.010;10.366;2023-07-31T11:45:31;3.53;;;2.50;;
14789;SDS011;7486;51.010;10.366;2023-07-31T11:48:22;4.10;;;2.70;;
14789;SDS011;7486;51.010;10.366;2023-07-31T11:51:10;5.35;;;2.80;;
14789;SDS011;7486;51.010;10.366;2023-07-31T11:53:57;3.88;;;2.40;;
14789;SDS011;7486;51.010;10.366;2023-07-31T11:56:45;4.63;;;2.50;;
14789;SDS011;7486;51.010;10.366;2023-07-31T11:59:31;4.63;;;2.50;;
14789;SDS011;7486;51.010;10.366;2023-07-31T12:02:18;4.35;;;2.33;;
14789;SDS011;7486;51.010;10.366;2023-07-31T12:05:04;3.67;;;2.50;;
14789;SDS011;7486;51.010;10.366;2023-07-31T12:07:52;4.32;;;2.70;;
14789;SDS011;7486;51.010;10.366;2023-07-31T12:10:39;4.03;;;2.40;;
14789;SDS011;7486;51.010;10.366;2023-07-31T12:13:25;3.85;;;2.05;;
14789;SDS011;7486;51.010;10.366;2023-07-31T12:16:11;4.03;;;2.45;;
14789;SDS011;7486;51.010;10.366;2023-07-31T12:18:57;4.05;;;2.40;;
14789;SDS011;7486;51.010;10.366;2023-07-31T12:21:42;3.08;;;2.25;;
14789;SDS011;7486;51.010;10.366;2023-07-31T12:24:28;3.63;;;2.00;;
14789;SDS011;7486;51.010;10.366;2023-07-31T12:27:14;3.63;;;2.10;;
14789;SDS011;7486;51.010;10.366;2023-07-31T12:30:00;4.35;;;2.38;;
14789;SDS011;7486;51.010;10.366;2023-07-31T12:32:46;4.88;;;2.10;;
14789;SDS011;7486;51.010;10.366;2023-07-31T12:35:34;4.68;;;2.50;;
14789;SDS011;7486;51.010;10.366;2023-07-31T12:38:21;3.75;;;2.13;;
14789;SDS011;7486;51.010;10.366;2023-07-31T12:41:07;4.47;;;2.72;;
14789;SDS011;7486;51.010;10.366;2023-07-31T12:43:53;3.65;;;2.30;;
14789;SDS011;7486;51.010;10.366;2023-07-31T12:46:38;5.18;;;2.65;;
14789;SDS011;7486;51.010;10.366;2023-07-31T12:49:24;3.38;;;2.28;;
14789;SDS011;7486;51.010;10.366;2023-07-31T12:52:10;4.70;;;2.60;;
14789;SDS011;7486;51.010;10.366;2023-07-31T12:54:55;4.15;;;2.42;;
14789;SDS011;7486;51.010;10.366;2023-07-31T12:57:41;3.00;;;2.30;;
14789;SDS011;7486;51.010;10.366;2023-07-31T13:00:26;4.35;;;2.60;;
14789;SDS011;7486;51.010;10.366;2023-07-31T13:03:12;4.60;;;2.17;;
14789;SDS011;7486;51.010;10.366;2023-07-31T13:05:58;4.10;;;2.25;;
14789;SDS011;7486;51.010;10.366;2023-07-31T13:08:44;4.13;;;2.60;;
14789;SDS011;7486;51.010;10.366;2023-07-31T13:11:29;4.82;;;2.55;;
14789;SDS011;7486;51.010;10.366;2023-07-31T13:14:15;3.95;;;2.40;;
14789;SDS011;7486;51.010;10.366;2023-07-31T13:17:00;4.25;;;2.40;;
14789;SDS011;7486;51.010;10.366;2023-07-31T13:19:46;4.50;;;2.45;;
14789;SDS011;7486;51.010;10.366;2023-07-31T13:22:31;4.68;;;2.38;;
14789;SDS011;7486;51.010;10.366;2023-07-31T13:25:17;4.97;;;2.88;;
14789;SDS011;7486;51.010;10.366;2023-07-31T13:28:03;3.88;;;2.55;;
14789;SDS011;7486;51.010;10.366;2023-07-31T13:30:49;4.80;;;2.65;;
14789;SDS011;7486;51.010;10.366;2023-07-31T13:33:34;5.10;;;2.63;;
14789;SDS011;7486;51.010;10.366;2023-07-31T13:36:24;4.28;;;2.60;;
14789;SDS011;7486;51.010;10.366;2023-07-31T13:39:09;4.10;;;2.50;;
14789;SDS011;7486;51.010;10.366;2023-07-31T13:41:54;5.50;;;2.67;;
14789;SDS011;7486;51.010;10.366;2023-07-31T13:44:39;4.78;;;2.70;;
14789;SDS011;7486;51.010;10.366;2023-07-31T13:47:25;4.47;;;2.28;;
14789;SDS011;7486;51.010;10.366;2023-07-31T13:50:11;3.88;;;2.85;;
14789;SDS011;7486;51.010;10.366;2023-07-31T13:52:56;5.22;;;2.67;;
14789;SDS011;7486;51.010;10.366;2023-07-31T13:55:42;5.50;;;3.03;;
14789;SDS011;7486;51.010;10.366;2023-07-31T13:58:28;4.47;;;2.75;;
14789;SDS011;7486;51.010;10.366;2023-07-31T14:01:13;5.20;;;2.78;;
14789;SDS011;7486;51.010;10.366;2023-07-31T14:04:02;3.97;;;2.85;;
14789;SDS011;7486;51.010;10.366;2023-07-31T14:06:47;4.78;;;2.58;;
14789;SDS011;7486;51.010;10.366;2023-07-31T14:09:33;3.53;;;2.35;;
14789;SDS011;7486;51.010;10.366;2023-07-31T14:12:19;4.93;;;2.53;;
14789;SDS011;7486;51.010;10.366;2023-07-31T14:15:24;4.72;;;2.92;;
14789;SDS011;7486;51.010;10.366;2023-07-31T14:18:10;4.30;;;2.50;;
14789;SDS011;7486;51.010;10.366;2023-07-31T14:20:59;4.40;;;2.50;;
14789;SDS011;7486;51.010;10.366;2023-07-31T14:23:45;5.00;;;2.88;;
14789;SDS011;7486;51.010;10.366;2023-07-31T14:26:30;4.65;;;2.65;;
14789;SDS011;7486;51.010;10.366;2023-07-31T14:29:16;7.70;;;3.28;;
14789;SDS011;7486;51.010;10.366;2023-07-31T14:32:02;4.20;;;2.50;;
14789;SDS011;7486;51.010;10.366;2023-07-31T14:34:47;3.58;;;2.42;;
14789;SDS011;7486;51.010;10.366;2023-07-31T14:37:37;4.53;;;2.78;;
14789;SDS011;7486;51.010;10.366;2023-07-31T14:40:25;4.68;;;2.78;;
14789;SDS011;7486;51.010;10.366;2023-07-31T14:43:12;3.67;;;2.38;;
14789;SDS011;7486;51.010;10.366;2023-07-31T14:45:57;4.70;;;2.40;;
14789;SDS011;7486;51.010;10.366;2023-07-31T14:48:43;4.43;;;2.55;;
14789;SDS011;7486;51.010;10.366;2023-07-31T14:51:29;3.63;;;2.45;;
14789;SDS011;7486;51.010;10.366;2023-07-31T14:54:15;6.00;;;2.40;;
14789;SDS011;7486;51.010;10.366;2023-07-31T14:57:00;4.75;;;2.67;;
14789;SDS011;7486;51.010;10.366;2023-07-31T14:59:47;5.75;;;2.63;;
14789;SDS011;7486;51.010;10.366;2023-07-31T15:02:38;4.03;;;2.50;;
14789;SDS011;7486;51.010;10.366;2023-07-31T15:05:25;6.38;;;2.67;;
14789;SDS011;7486;51.010;10.366;2023-07-31T15:08:11;4.82;;;2.72;;
14789;SDS011;7486;51.010;10.366;2023-07-31T15:10:56;3.55;;;2.63;;
14789;SDS011;7486;51.010;10.366;2023-07-31T15:13:43;5.40;;;2.83;;
14789;SDS011;7486;51.010;10.366;2023-07-31T15:16:28;4.80;;;2.70;;
14789;SDS011;7486;51.010;10.366;2023-07-31T15:19:14;8.23;;;2.45;;
14789;SDS011;7486;51.010;10.366;2023-07-31T15:22:00;3.53;;;2.20;;
14789;SDS011;7486;51.010;10.366;2023-07-31T15:24:46;5.07;;;2.28;;
14789;SDS011;7486;51.010;10.366;2023-07-31T15:27:32;3.80;;;2.10;;
14789;SDS011;7486;51.010;10.366;2023-07-31T15:30:17;4.97;;;2.40;;
14789;SDS011;7486;51.010;10.366;2023-07-31T15:33:04;4.85;;;2.40;;
14789;SDS011;7486;51.010;10.366;2023-07-31T15:35:49;6.63;;;2.53;;
14789;SDS011;7486;51.010;10.366;2023-07-31T15:38:35;5.57;;;2.88;;
14789;SDS011;7486;51.010;10.366;2023-07-31T15:41:20;4.10;;;2.50;;
14789;SDS011;7486;51.010;10.366;2023-07-31T15:44:06;4.97;;;2.83;;
14789;SDS011;7486;51.010;10.366;2023-07-31T15:46:52;5.35;;;2.95;;
14789;SDS011;7486;51.010;10.366;2023-07-31T15:49:38;3.90;;;2.60;;
14789;SDS011;7486;51.010;10.366;2023-07-31T15:52:23;3.40;;;2.70;;
14789;SDS011;7486;51.010;10.366;2023-07-31T15:55:09;3.92;;;2.65;;
14789;SDS011;7486;51.010;10.366;2023-07-31T15:57:55;6.00;;;2.63;;
14789;SDS011;7486;51.010;10.366;2023-07-31T16:00:40;3.65;;;2.60;;
14789;SDS011;7486;51.010;10.366;2023-07-31T16:03:26;4.75;;;2.92;;
14789;SDS011;7486;51.010;10.366;2023-07-31T16:06:15;5.13;;;2.40;;
14789;SDS011;7486;51.010;10.366;2023-07-31T16:09:00;3.95;;;2.58;;
14789;SDS011;7486;51.010;10.366;2023-07-31T16:11:46;4.28;;;2.55;;
14789;SDS011;7486;51.010;10.366;2023-07-31T16:14:32;4.70;;;2.90;;
14789;SDS011;7486;51.010;10.366;2023-07-31T16:17:17;5.07;;;2.70;;
14789;SDS011;7486;51.010;10.366;2023-07-31T16:20:02;4.25;;;2.33;;
14789;SDS011;7486;51.010;10.366;2023-07-31T16:22:49;6.38;;;3.00;;
14789;SDS011;7486;51.010;10.366;2023-07-31T16:25:34;4.45;;;2.70;;
14789;SDS011;7486;51.010;10.366;2023-07-31T16:28:20;3.97;;;2.85;;
14789;SDS011;7486;51.010;10.366;2023-07-31T16:31:05;4.03;;;2.63;;
14789;SDS011;7486;51.010;10.366;2023-07-31T16:33:51;3.47;;;2.60;;
14789;SDS011;7486;51.010;10.366;2023-07-31T16:36:37;5.90;;;2.72;;
14789;SDS011;7486;51.010;10.366;2023-07-31T16:39:22;4.93;;;2.70;;
14789;SDS011;7486;51.010;10.366;2023-07-31T16:42:08;5.18;;;2.53;;
14789;SDS011;7486;51.010;10.366;2023-07-31T16:44:53;4.70;;;2.67;;
14789;SDS011;7486;51.010;10.366;2023-07-31T16:47:39;5.45;;;2.90;;
14789;SDS011;7486;51.010;10.366;2023-07-31T16:50:24;4.57;;;2.47;;
14789;SDS011;7486;51.010;10.366;2023-07-31T16:53:10;4.40;;;2.30;;